Time;durP1;ratioP1;P1;durP2;ratioP2;P2;SDS_P1;SDS_P2;PMS_P1;PMS_P2;Temp;Humidity;BMP_temperature;BMP_pressure;BME280_temperature;BME280_humidity;BME280_pressure;Samples;Min_cycle;Max_cycle;Signal;HPM_P1;HPM_P2
2022/04/06 00:00:34;;;;;;;;;;;22.50;44.60;;;;;;5094235;28;20289;-43
2022/04/06 00:03:01;;;;;;;;;;;22.50;44.60;;;;;;5093640;28;19973;-43
2022/04/06 00:05:28;;;;;;;;;;;22.50;44.60;;;;;;5093459;28;19974;-42
2022/04/06 00:07:55;;;;;;;;;;;22.50;44.60;;;;;;5092639;28;19928;-42
2022/04/06 00:10:22;;;;;;;;;;;22.50;44.60;;;;;;5093799;28;20342;-44
2022/04/06 00:12:49;;;;;;;;;;;22.50;44.60;;;;;;5093332;28;19924;-42
2022/04/06 00:15:16;;;;;;;;;;;22.40;44.50;;;;;;5093309;28;19978;-42
2022/04/06 00:17:43;;;;;;;;;;;22.50;44.60;;;;;;5093666;28;19959;-42
2022/04/06 00:20:10;;;;;;;;;;;22.50;44.60;;;;;;5093285;28;19950;-45
2022/04/06 00:22:37;;;;;;;;;;;22.50;44.60;;;;;;5092320;28;19958;-42
2022/04/06 00:25:04;;;;;;;;;;;22.50;44.60;;;;;;5094510;28;19924;-45
2022/04/06 00:27:31;;;;;;;;;;;22.50;44.60;;;;;;5093220;28;20376;-42
2022/04/06 00:29:58;;;;;;;;;;;22.40;44.60;;;;;;5093597;28;20287;-43
2022/04/06 00:32:26;;;;;;;;;;;22.40;44.60;;;;;;5095969;28;19931;-43
2022/04/06 00:37:38;;;;;;;;;;;22.50;44.60;;;;;;5096232;28;19982;-42
2022/04/06 00:40:08;;;;;;;;;;;22.50;45.20;;;;;;5076986;28;19970;-42
2022/04/06 00:42:35;;;;;;;;;;;22.50;44.60;;;;;;5076743;28;19924;-42
2022/04/06 00:45:02;;;;;;;;;;;22.50;44.60;;;;;;5076756;28;20018;-42
2022/04/06 00:47:29;;;;;;;;;;;22.50;44.60;;;;;;5076636;28;20307;-45
2022/04/06 00:49:56;;;;;;;;;;;22.40;44.50;;;;;;5076141;28;20380;-42
2022/04/06 00:52:23;;;;;;;;;;;22.40;44.50;;;;;;5076690;28;19936;-44
2022/04/06 00:54:50;;;;;;;;;;;22.40;44.60;;;;;;5093894;28;19928;-48
2022/04/06 00:57:19;;;;;;;;;;;22.40;44.60;;;;;;5096594;28;19981;-42
2022/04/06 00:59:56;;;;;;;;;;;22.40;44.60;;;;;;5097068;28;19924;-42
2022/04/06 01:02:23;;;;;;;;;;;22.40;44.60;;;;;;5096845;28;19924;-43
2022/04/06 01:04:50;;;;;;;;;;;22.40;44.60;;;;;;5096430;28;19930;-45
2022/04/06 01:07:18;;;;;;;;;;;22.40;44.60;;;;;;5096681;28;19975;-42
2022/04/06 01:09:45;;;;;;;;;;;22.40;44.60;;;;;;5077978;28;20018;-43
2022/04/06 01:12:13;;;;;;;;;;;22.40;44.60;;;;;;5096338;28;19972;-42
2022/04/06 01:14:40;;;;;;;;;;;22.40;44.60;;;;;;5083913;28;19924;-42
2022/04/06 01:17:08;;;;;;;;;;;22.40;44.60;;;;;;5076124;28;19929;-43
2022/04/06 01:19:39;;;;;;;;;;;22.40;44.60;;;;;;5076084;28;19925;-42
2022/04/06 01:22:11;;;;;;;;;;;22.40;44.60;;;;;;5075859;28;20273;-42
2022/04/06 01:24:38;;;;;;;;;;;22.40;44.60;;;;;;5070912;28;19995;-42
2022/04/06 01:27:06;;;;;;;;;;;22.40;44.60;;;;;;5095846;28;19924;-43
2022/04/06 01:29:33;;;;;;;;;;;22.40;44.60;;;;;;5095691;28;19974;-42
2022/04/06 01:32:26;;;;;;;;;;;22.40;44.60;;;;;;5095964;28;19969;-42
2022/04/06 01:34:54;;;;;;;;;;;22.40;44.60;;;;;;5093206;28;19924;-41
2022/04/06 01:37:21;;;;;;;;;;;22.40;44.60;;;;;;5095321;28;20006;-42
2022/04/06 01:39:49;;;;;;;;;;;22.40;44.60;;;;;;5095688;28;20269;-42
2022/04/06 01:42:18;;;;;;;;;;;22.50;44.60;;;;;;5095622;28;19985;-43
2022/04/06 01:44:46;;;;;;;;;;;22.40;44.50;;;;;;5095486;28;19931;-42
2022/04/06 01:47:15;;;;;;;;;;;22.50;44.60;;;;;;5095923;28;19971;-42
2022/04/06 01:52:28;;;;;;;;;;;22.40;44.60;;;;;;5095337;28;19982;-42
2022/04/06 01:54:56;;;;;;;;;;;22.40;44.50;;;;;;5081973;28;19924;-43
2022/04/06 01:57:24;;;;;;;;;;;22.40;44.50;;;;;;5075498;28;19968;-42
2022/04/06 01:59:51;;;;;;;;;;;22.40;44.50;;;;;;5075384;28;20376;-42
2022/04/06 02:02:18;;;;;;;;;;;22.40;44.50;;;;;;5057734;28;19929;-42
2022/04/06 02:04:46;;;;;;;;;;;22.50;44.60;;;;;;5075180;28;19924;-42
2022/04/06 02:07:14;;;;;;;;;;;22.40;44.50;;;;;;5075253;28;19924;-42
2022/04/06 02:09:41;;;;;;;;;;;22.40;44.50;;;;;;5084071;28;20007;-42
2022/04/06 02:12:09;;;;;;;;;;;22.40;44.50;;;;;;5095115;28;19928;-42
2022/04/06 02:14:38;;;;;;;;;;;22.40;44.50;;;;;;5095706;28;19924;-43
2022/04/06 02:17:06;;;;;;;;;;;22.40;44.50;;;;;;5095269;28;19928;-43
2022/04/06 02:19:35;;;;;;;;;;;22.40;44.60;;;;;;5095139;28;20349;-43
2022/04/06 02:22:04;;;;;;;;;;;22.40;44.60;;;;;;5094990;28;19924;-43
2022/04/06 02:24:31;;;;;;;;;;;22.40;44.60;;;;;;5094906;28;19928;-43
2022/04/06 02:26:58;;;;;;;;;;;22.40;44.60;;;;;;5094692;28;19924;-43
2022/04/06 02:29:25;;;;;;;;;;;22.40;44.60;;;;;;5094611;28;19978;-45
2022/04/06 02:31:52;;;;;;;;;;;22.40;44.60;;;;;;5094748;28;19931;-43
2022/04/06 02:34:19;;;;;;;;;;;22.40;44.60;;;;;;5094669;28;19924;-42
2022/04/06 02:36:46;;;;;;;;;;;22.40;44.60;;;;;;5094599;28;20380;-43
2022/04/06 02:39:14;;;;;;;;;;;22.40;44.60;;;;;;5093457;28;19928;-42
2022/04/06 02:41:41;;;;;;;;;;;22.40;44.60;;;;;;5076988;28;20306;-42
2022/04/06 02:44:08;;;;;;;;;;;22.40;44.60;;;;;;5094810;28;19931;-42
2022/04/06 02:46:35;;;;;;;;;;;22.40;45.20;;;;;;5094638;28;20342;-43
2022/04/06 02:49:02;;;;;;;;;;;22.40;45.20;;;;;;5076583;28;19924;-42
2022/04/06 02:51:29;;;;;;;;;;;22.40;44.60;;;;;;5094387;28;19928;-42
2022/04/06 02:53:55;;;;;;;;;;;22.40;44.60;;;;;;5075989;28;19924;-43
2022/04/06 02:56:22;;;;;;;;;;;22.40;44.60;;;;;;5093840;28;19977;-43
2022/04/06 02:58:49;;;;;;;;;;;22.40;44.50;;;;;;5094631;28;19924;-42
2022/04/06 03:01:16;;;;;;;;;;;22.40;44.50;;;;;;5094146;28;19968;-42
2022/04/06 03:03:43;;;;;;;;;;;22.40;44.50;;;;;;5094262;28;19924;-42
2022/04/06 03:06:10;;;;;;;;;;;22.40;44.60;;;;;;5094041;28;19924;-42
2022/04/06 03:08:37;;;;;;;;;;;22.40;44.50;;;;;;5076636;28;19993;-42
2022/04/06 03:11:04;;;;;;;;;;;22.40;44.50;;;;;;5075649;28;20038;-42
2022/04/06 03:13:31;;;;;;;;;;;22.40;44.60;;;;;;5076143;28;19946;-42
2022/04/06 03:15:58;;;;;;;;;;;22.40;44.60;;;;;;5094098;28;19931;-42
2022/04/06 03:18:25;;;;;;;;;;;22.40;44.60;;;;;;5094350;28;19963;-42
2022/04/06 03:20:52;;;;;;;;;;;22.40;44.60;;;;;;5093884;28;19971;-42
2022/04/06 03:23:19;;;;;;;;;;;22.40;44.60;;;;;;5093970;28;19977;-42
2022/04/06 03:25:46;;;;;;;;;;;22.40;44.60;;;;;;5093333;28;19924;-43
2022/04/06 03:28:13;;;;;;;;;;;22.40;44.60;;;;;;5093842;28;19946;-42
2022/04/06 03:30:41;;;;;;;;;;;22.40;44.60;;;;;;5094758;28;19954;-43
2022/04/06 03:33:09;;;;;;;;;;;22.40;44.60;;;;;;5094170;28;20342;-42
2022/04/06 03:35:36;;;;;;;;;;;22.40;44.60;;;;;;5093843;28;19946;-42
2022/04/06 03:38:03;;;;;;;;;;;22.40;44.60;;;;;;5093957;28;19956;-42
2022/04/06 03:40:30;;;;;;;;;;;22.40;44.60;;;;;;5084802;28;19958;-42
2022/04/06 03:42:57;;;;;;;;;;;22.40;44.60;;;;;;5055807;28;19971;-42
2022/04/06 03:45:24;;;;;;;;;;;22.40;44.60;;;;;;5073401;28;19924;-42
2022/04/06 03:47:51;;;;;;;;;;;22.40;44.60;;;;;;5056069;28;19925;-42
2022/04/06 03:50:18;;;;;;;;;;;22.40;44.60;;;;;;5073630;28;19978;-42
2022/04/06 03:52:45;;;;;;;;;;;22.40;44.60;;;;;;5073721;28;19924;-42
2022/04/06 03:55:12;;;;;;;;;;;22.40;44.60;;;;;;5077587;28;20376;-44
2022/04/06 03:57:39;;;;;;;;;;;22.40;44.60;;;;;;5093596;28;19928;-42
2022/04/06 04:00:08;;;;;;;;;;;22.40;44.60;;;;;;5093583;28;19974;-41
2022/04/06 04:02:35;;;;;;;;;;;22.40;44.60;;;;;;5093346;28;19924;-43
2022/04/06 04:05:03;;;;;;;;;;;22.40;44.60;;;;;;5076245;28;20288;-42
2022/04/06 04:07:31;;;;;;;;;;;22.40;44.60;;;;;;5097789;28;19924;-42
2022/04/06 04:09:58;;;;;;;;;;;22.40;44.60;;;;;;5096574;28;20419;-43
2022/04/06 04:12:25;;;;;;;;;;;22.40;44.60;;;;;;5097822;28;20346;-43
2022/04/06 04:14:52;;;;;;;;;;;22.40;44.60;;;;;;5097452;28;19970;-42
2022/04/06 04:17:19;;;;;;;;;;;22.40;44.70;;;;;;5079665;28;20291;-42
2022/04/06 04:19:46;;;;;;;;;;;22.40;44.60;;;;;;5097856;28;19963;-43
2022/04/06 04:22:13;;;;;;;;;;;22.40;44.60;;;;;;5097233;28;19975;-43
2022/04/06 04:24:40;;;;;;;;;;;22.40;44.60;;;;;;5097242;28;19953;-42
2022/04/06 04:27:07;;;;;;;;;;;22.40;44.60;;;;;;5096035;28;20453;-45
2022/04/06 04:29:34;;;;;;;;;;;22.40;44.60;;;;;;5079213;28;19924;-42
2022/04/06 04:32:01;;;;;;;;;;;22.40;44.60;;;;;;5097132;28;19978;-41
2022/04/06 04:34:28;;;;;;;;;;;22.40;44.60;;;;;;5097342;28;19993;-42
2022/04/06 04:36:55;;;;;;;;;;;22.40;44.70;;;;;;5096999;28;19954;-45
2022/04/06 04:39:22;;;;;;;;;;;22.40;44.60;;;;;;5097264;28;20011;-44
2022/04/06 04:41:49;;;;;;;;;;;22.40;44.70;;;;;;5096166;28;20327;-42
2022/04/06 04:44:16;;;;;;;;;;;22.40;44.60;;;;;;5096528;28;19928;-42
2022/04/06 04:46:43;;;;;;;;;;;22.30;44.60;;;;;;5096523;28;19931;-42
2022/04/06 04:49:10;;;;;;;;;;;22.40;44.70;;;;;;5096739;28;19924;-42
2022/04/06 04:51:37;;;;;;;;;;;22.40;44.60;;;;;;5096937;28;19967;-43
2022/04/06 04:54:04;;;;;;;;;;;22.40;44.60;;;;;;5096705;28;19962;-43
2022/04/06 04:56:33;;;;;;;;;;;22.40;44.60;;;;;;5085658;28;19924;-42
2022/04/06 04:59:00;;;;;;;;;;;22.40;44.60;;;;;;5076669;28;19931;-42
2022/04/06 05:01:27;;;;;;;;;;;22.40;44.60;;;;;;5076502;28;19990;-42
2022/04/06 05:03:54;;;;;;;;;;;22.40;44.60;;;;;;5076225;28;19974;-42
2022/04/06 05:06:21;;;;;;;;;;;22.40;44.60;;;;;;5076390;28;19924;-44
2022/04/06 05:08:48;;;;;;;;;;;22.40;44.60;;;;;;5076175;28;19925;-45
2022/04/06 05:11:15;;;;;;;;;;;22.40;44.60;;;;;;5076132;28;19928;-43
2022/04/06 05:13:42;;;;;;;;;;;22.40;44.60;;;;;;5076077;28;20396;-42
2022/04/06 05:16:09;;;;;;;;;;;22.40;44.60;;;;;;5076183;28;19925;-42
2022/04/06 05:18:36;;;;;;;;;;;22.40;44.60;;;;;;5075767;28;19973;-42
2022/04/06 05:21:08;;;;;;;;;;;22.40;44.60;;;;;;5075652;28;20445;-45
2022/04/06 05:23:35;;;;;;;;;;;22.40;45.20;;;;;;5075694;28;20380;-42
2022/04/06 05:26:02;;;;;;;;;;;22.40;44.50;;;;;;5078909;28;20383;-40
2022/04/06 05:28:29;;;;;;;;;;;22.40;44.50;;;;;;5096177;28;19928;-43
2022/04/06 05:30:57;;;;;;;;;;;22.40;44.50;;;;;;5078355;28;19931;-43
2022/04/06 05:33:24;;;;;;;;;;;22.40;44.40;;;;;;5095593;28;19930;-42
2022/04/06 05:35:51;;;;;;;;;;;22.40;44.40;;;;;;5096105;28;20007;-42
2022/04/06 05:38:18;;;;;;;;;;;22.40;44.40;;;;;;5095726;28;19932;-41
2022/04/06 05:40:45;;;;;;;;;;;22.40;44.40;;;;;;5095202;28;20019;-43
2022/04/06 05:43:12;;;;;;;;;;;22.40;44.40;;;;;;5094981;28;19924;-41
2022/04/06 05:45:40;;;;;;;;;;;22.40;44.40;;;;;;5093092;28;19928;-42
2022/04/06 05:48:07;;;;;;;;;;;22.50;44.40;;;;;;5094673;28;20384;-43
2022/04/06 05:50:34;;;;;;;;;;;22.50;44.40;;;;;;5094706;28;19971;-42
2022/04/06 05:53:01;;;;;;;;;;;22.50;44.40;;;;;;5093502;28;19978;-42
2022/04/06 05:55:28;;;;;;;;;;;22.50;44.30;;;;;;5094812;28;19967;-41
2022/04/06 05:57:55;;;;;;;;;;;22.50;44.30;;;;;;5076340;28;19964;-42
2022/04/06 06:00:22;;;;;;;;;;;22.50;44.40;;;;;;5073532;28;19955;-41
2022/04/06 06:02:51;;;;;;;;;;;22.50;44.30;;;;;;5074714;28;19998;-42
2022/04/06 06:05:18;;;;;;;;;;;22.50;44.30;;;;;;5073950;28;19928;-41
2022/04/06 06:07:45;;;;;;;;;;;22.50;44.30;;;;;;5073496;28;19924;-43
2022/04/06 06:10:12;;;;;;;;;;;22.50;44.30;;;;;;5056957;28;19931;-46
2022/04/06 06:12:39;;;;;;;;;;;22.50;44.30;;;;;;5086326;28;20316;-49
2022/04/06 06:15:06;;;;;;;;;;;22.50;44.20;;;;;;5093890;28;19931;-47
2022/04/06 06:17:37;;;;;;;;;;;22.50;44.20;;;;;;5094444;28;19952;-45
2022/04/06 06:20:04;;;;;;;;;;;22.50;44.20;;;;;;5092973;28;19924;-43
2022/04/06 06:22:31;;;;;;;;;;;22.50;44.20;;;;;;5093754;28;20015;-50
2022/04/06 06:24:58;;;;;;;;;;;22.60;44.20;;;;;;5094081;28;19963;-47
2022/04/06 06:27:25;;;;;;;;;;;22.60;44.20;;;;;;5092660;28;19924;-50
2022/04/06 06:29:52;;;;;;;;;;;22.60;44.20;;;;;;5092925;28;20337;-48
2022/04/06 06:32:19;;;;;;;;;;;22.60;44.20;;;;;;5094088;28;20421;-45
2022/04/06 06:34:46;;;;;;;;;;;22.60;44.10;;;;;;5075116;28;19925;-43
2022/04/06 06:37:13;;;;;;;;;;;22.70;44.20;;;;;;5093205;28;19967;-44
2022/04/06 06:39:40;;;;;;;;;;;22.70;44.20;;;;;;5093790;28;19993;-42
2022/04/06 06:42:07;;;;;;;;;;;22.70;44.20;;;;;;5092200;28;20376;-49
2022/04/06 06:44:34;;;;;;;;;;;22.70;44.10;;;;;;5094148;28;19924;-47
2022/04/06 06:47:01;;;;;;;;;;;22.60;44.30;;;;;;5093577;28;19924;-45
2022/04/06 06:49:28;;;;;;;;;;;22.60;44.30;;;;;;5093182;28;19927;-46
2022/04/06 06:51:55;;;;;;;;;;;22.60;44.40;;;;;;5093770;28;20380;-42
2022/04/06 06:54:22;;;;;;;;;;;22.70;45.20;;;;;;5091939;28;19924;-45
2022/04/06 06:56:49;;;;;;;;;;;22.70;45.10;;;;;;5092082;28;20050;-49
2022/04/06 06:59:16;;;;;;;;;;;22.70;44.80;;;;;;5093916;28;20346;-47
2022/04/06 07:01:42;;;;;;;;;;;22.70;44.70;;;;;;5093758;28;19924;-44
2022/04/06 07:04:13;;;;;;;;;;;22.70;44.60;;;;;;5093085;28;19924;-48
2022/04/06 07:06:40;;;;;;;;;;;22.80;44.70;;;;;;5094212;28;19928;-45
2022/04/06 07:09:07;;;;;;;;;;;22.80;44.70;;;;;;5092439;28;19928;-47
2022/04/06 07:11:34;;;;;;;;;;;22.80;44.60;;;;;;5093185;28;20429;-48
2022/04/06 07:14:00;;;;;;;;;;;22.80;44.60;;;;;;5092908;28;20033;-47
2022/04/06 07:16:28;;;;;;;;;;;22.90;44.70;;;;;;5093191;28;19967;-49
2022/04/06 07:18:55;;;;;;;;;;;22.90;44.70;;;;;;5092887;28;19924;-46
2022/04/06 07:21:22;;;;;;;;;;;23.00;44.80;;;;;;5093254;28;20311;-47
2022/04/06 07:23:49;;;;;;;;;;;23.00;44.80;;;;;;5092030;28;20457;-44
2022/04/06 07:26:18;;;;;;;;;;;23.00;44.90;;;;;;5092916;28;19969;-43
2022/04/06 07:28:45;;;;;;;;;;;23.00;45.00;;;;;;5092368;28;19924;-47
2022/04/06 07:31:13;;;;;;;;;;;23.00;45.10;;;;;;5092786;28;19933;-50
2022/04/06 07:33:40;;;;;;;;;;;23.00;45.70;;;;;;5093257;28;20024;-45
2022/04/06 07:36:07;;;;;;;;;;;23.00;45.20;;;;;;5093123;28;20413;-48
2022/04/06 07:38:34;;;;;;;;;;;23.00;45.20;;;;;;5091809;28;19954;-48
2022/04/06 07:41:01;;;;;;;;;;;23.00;45.10;;;;;;5055030;28;20007;-51
2022/04/06 07:43:28;;;;;;;;;;;23.10;45.20;;;;;;5054251;28;19968;-46
2022/04/06 07:45:55;;;;;;;;;;;23.10;45.20;;;;;;5054172;28;19930;-49
2022/04/06 07:48:25;;;;;;;;;;;23.10;45.30;;;;;;5072518;28;19995;-49
2022/04/06 07:50:54;;;;;;;;;;;23.10;45.20;;;;;;5072994;28;20003;-50
2022/04/06 07:53:21;;;;;;;;;;;23.10;45.30;;;;;;5071940;28;19924;-49
2022/04/06 07:55:49;;;;;;;;;;;23.10;45.40;;;;;;5072576;28;19931;-48
2022/04/06 07:58:18;;;;;;;;;;;23.20;46.00;;;;;;5081444;28;19931;-51
2022/04/06 08:00:45;;;;;;;;;;;23.20;45.50;;;;;;5092258;28;19954;-50
2022/04/06 08:03:13;;;;;;;;;;;23.20;45.40;;;;;;5075185;28;19928;-43
2022/04/06 08:05:40;;;;;;;;;;;23.20;45.40;;;;;;5092320;28;19932;-47
2022/04/06 08:08:07;;;;;;;;;;;23.20;45.40;;;;;;5092490;28;19969;-49
2022/04/06 08:10:34;;;;;;;;;;;23.20;45.40;;;;;;5093109;28;19924;-44
2022/04/06 08:13:05;;;;;;;;;;;23.20;45.40;;;;;;5074084;28;19950;-50
2022/04/06 08:15:32;;;;;;;;;;;23.10;45.40;;;;;;5092218;28;19930;-48
2022/04/06 08:18:00;;;;;;;;;;;23.10;45.40;;;;;;5093139;28;19951;-47
2022/04/06 08:20:27;;;;;;;;;;;23.10;45.50;;;;;;5091709;28;19971;-51
2022/04/06 08:22:53;;;;;;;;;;;23.10;45.50;;;;;;5075318;28;19974;-47
2022/04/06 08:25:20;;;;;;;;;;;23.10;45.60;;;;;;5092938;28;19950;-45
2022/04/06 08:28:02;;;;;;;;;;;23.10;45.60;;;;;;5087586;28;20040;-48
2022/04/06 08:30:29;;;;;;;;;;;23.10;45.60;;;;;;5072507;28;19975;-51
2022/04/06 08:32:58;;;;;;;;;;;23.10;45.60;;;;;;5072098;28;19925;-45
2022/04/06 08:35:26;;;;;;;;;;;23.10;45.70;;;;;;5071999;28;20019;-48
2022/04/06 08:37:53;;;;;;;;;;;23.10;45.70;;;;;;5072728;28;20011;-42
2022/04/06 08:40:21;;;;;;;;;;;23.10;45.70;;;;;;5072439;28;20299;-48
2022/04/06 08:42:48;;;;;;;;;;;23.10;45.80;;;;;;5072175;28;20299;-42
2022/04/06 08:45:16;;;;;;;;;;;23.10;45.80;;;;;;5071586;28;19929;-48
2022/04/06 08:47:47;;;;;;;;;;;23.10;45.80;;;;;;5071612;28;19925;-47
2022/04/06 08:50:16;;;;;;;;;;;23.10;45.80;;;;;;5072565;28;20350;-50
2022/04/06 08:52:43;;;;;;;;;;;23.10;45.90;;;;;;5073292;28;20003;-48
2022/04/06 08:55:28;;;;;;;;;;;23.00;45.90;;;;;;5063226;28;19931;-47
2022/04/06 08:57:55;;;;;;;;;;;23.00;46.10;;;;;;5094820;28;19935;-47
2022/04/06 09:00:22;;;;;;;;;;;23.00;46.10;;;;;;5075773;28;20447;-49
2022/04/06 09:02:49;;;;;;;;;;;22.90;46.10;;;;;;5075303;28;20010;-49
2022/04/06 09:05:20;;;;;;;;;;;22.90;46.00;;;;;;5057831;28;19924;-42
2022/04/06 09:07:51;;;;;;;;;;;22.90;45.90;;;;;;5075124;28;19975;-43
2022/04/06 09:10:33;;;;;;;;;;;22.90;45.80;;;;;;5075678;28;19924;-44
2022/04/06 09:13:07;;;;;;;;;;;22.90;45.70;;;;;;5095449;28;19963;-42
2022/04/06 09:15:34;;;;;;;;;;;22.90;45.70;;;;;;5094935;28;19935;-42
2022/04/06 09:18:02;;;;;;;;;;;23.00;45.70;;;;;;5095565;28;19928;-42
2022/04/06 09:20:30;;;;;;;;;;;23.00;45.70;;;;;;5095503;28;19924;-42
2022/04/06 09:23:02;;;;;;;;;;;23.00;45.70;;;;;;5095082;28;19969;-42
2022/04/06 09:25:36;;;;;;;;;;;23.00;45.80;;;;;;5094579;28;19931;-48
2022/04/06 09:28:07;;;;;;;;;;;23.00;45.90;;;;;;5095722;28;19973;-44
2022/04/06 09:30:36;;;;;;;;;;;23.00;46.40;;;;;;5094678;28;19989;-42
2022/04/06 09:33:03;;;;;;;;;;;23.00;46.30;;;;;;5095240;28;19927;-45
2022/04/06 09:35:34;;;;;;;;;;;23.00;46.50;;;;;;5095505;28;19924;-42
2022/04/06 09:38:22;;;;;;;;;;;23.10;46.20;;;;;;5095032;28;19928;-42
2022/04/06 09:40:59;;;;;;;;;;;23.10;46.00;;;;;;5093649;28;20325;-46
2022/04/06 09:43:28;;;;;;;;;;;23.10;45.90;;;;;;5074516;28;19928;-42
2022/04/06 09:48:52;;;;;;;;;;;23.10;46.60;;;;;;5075077;28;19924;-48
2022/04/06 09:51:20;;;;;;;;;;;23.10;47.10;;;;;;5074057;28;20388;-46
2022/04/06 09:53:48;;;;;;;;;;;23.10;47.10;;;;;;5074925;28;19924;-42
2022/04/06 09:56:16;;;;;;;;;;;23.20;47.30;;;;;;5061171;28;20475;-42
2022/04/06 09:58:44;;;;;;;;;;;23.20;47.20;;;;;;5094045;28;19925;-44
2022/04/06 10:01:12;;;;;;;;;;;23.20;47.20;;;;;;5095080;28;19928;-45
2022/04/06 10:03:40;;;;;;;;;;;23.20;47.20;;;;;;5094678;28;19928;-47
2022/04/06 10:06:09;;;;;;;;;;;23.20;46.60;;;;;;5095325;28;20010;-43
2022/04/06 10:08:38;;;;;;;;;;;23.20;46.30;;;;;;5095149;28;19969;-43
2022/04/06 10:11:05;;;;;;;;;;;23.20;46.20;;;;;;5092874;28;19924;-45
2022/04/06 10:13:33;;;;;;;;;;;23.10;46.20;;;;;;5074575;28;19974;-47
2022/04/06 10:16:21;;;;;;;;;;;23.10;46.30;;;;;;5074720;28;19972;-43
2022/04/06 10:18:48;;;;;;;;;;;23.10;46.40;;;;;;5074841;28;19925;-49
2022/04/06 10:21:20;;;;;;;;;;;23.10;46.40;;;;;;5074616;28;19925;-48
2022/04/06 10:24:05;;;;;;;;;;;23.10;46.50;;;;;;5074715;28;19925;-46
2022/04/06 10:27:01;;;;;;;;;;;23.10;46.50;;;;;;5078596;28;19928;-48
2022/04/06 10:29:28;;;;;;;;;;;23.10;46.60;;;;;;5080737;28;20001;-51
2022/04/06 10:31:55;;;;;;;;;;;23.10;46.60;;;;;;5095057;28;19977;-43
2022/04/06 10:34:24;;;;;;;;;;;23.10;46.60;;;;;;5095043;28;19974;-42
2022/04/06 10:37:07;;;;;;;;;;;23.00;46.50;;;;;;5094745;28;19924;-45
2022/04/06 10:39:54;;;;;;;;;;;23.00;46.50;;;;;;5095027;28;19989;-47
2022/04/06 10:42:31;;;;;;;;;;;23.00;46.50;;;;;;5085012;28;19994;-44
2022/04/06 10:44:59;;;;;;;;;;;23.00;46.50;;;;;;5073625;28;19960;-48
2022/04/06 10:47:29;;;;;;;;;;;23.00;46.40;;;;;;5074282;28;19925;-48
2022/04/06 10:50:08;;;;;;;;;;;23.00;46.40;;;;;;5074180;28;19925;-42
2022/04/06 10:52:35;;;;;;;;;;;23.10;46.40;;;;;;5074067;28;19928;-42
2022/04/06 10:55:09;;;;;;;;;;;23.00;46.30;;;;;;5056797;28;19964;-50
2022/04/06 10:57:55;;;;;;;;;;;23.00;46.30;;;;;;5073670;28;20376;-50
2022/04/06 11:00:22;;;;;;;;;;;23.10;46.30;;;;;;5066113;28;20346;-49
2022/04/06 11:02:50;;;;;;;;;;;23.10;46.30;;;;;;5094102;28;19938;-43
2022/04/06 11:05:36;;;;;;;;;;;23.10;46.20;;;;;;5094241;28;19924;-41
2022/04/06 11:10:49;;;;;;;;;;;23.10;46.10;;;;;;5094201;28;19924;-42
2022/04/06 11:13:22;;;;;;;;;;;23.10;46.00;;;;;;5092666;28;20379;-45
2022/04/06 11:15:51;;;;;;;;;;;23.10;46.00;;;;;;5092418;28;20411;-42
2022/04/06 11:18:36;;;;;;;;;;;23.10;46.60;;;;;;5094039;28;19924;-45
2022/04/06 11:21:04;;;;;;;;;;;23.10;46.00;;;;;;5094132;28;19967;-42
2022/04/06 11:23:31;;;;;;;;;;;23.20;46.00;;;;;;5094217;28;19985;-47
2022/04/06 11:25:59;;;;;;;;;;;23.20;46.00;;;;;;5094183;28;19924;-42
2022/04/06 11:28:27;;;;;;;;;;;23.20;46.00;;;;;;5092237;28;19924;-41
2022/04/06 11:30:54;;;;;;;;;;;23.20;45.90;;;;;;5093381;28;19993;-44
2022/04/06 11:33:21;;;;;;;;;;;23.20;45.80;;;;;;5094146;28;19924;-42
2022/04/06 11:35:49;;;;;;;;;;;23.20;45.80;;;;;;5094068;28;19984;-42
2022/04/06 11:38:16;;;;;;;;;;;23.20;45.80;;;;;;5093705;28;20038;-44
2022/04/06 11:40:43;;;;;;;;;;;23.20;45.80;;;;;;5094029;28;19924;-42
2022/04/06 11:43:10;;;;;;;;;;;23.30;45.80;;;;;;5092842;28;20396;-43
2022/04/06 11:45:44;;;;;;;;;;;23.30;45.70;;;;;;5093108;28;19924;-42
2022/04/06 11:48:15;;;;;;;;;;;23.30;45.70;;;;;;5094203;28;19969;-42
2022/04/06 11:50:43;;;;;;;;;;;23.30;45.60;;;;;;5093852;28;19997;-43
2022/04/06 11:53:18;;;;;;;;;;;23.30;45.60;;;;;;5093965;28;19938;-42
2022/04/06 11:55:51;;;;;;;;;;;23.30;45.60;;;;;;5094063;28;19976;-47
2022/04/06 11:58:48;;;;;;;;;;;23.30;45.50;;;;;;5083141;28;19928;-44
2022/04/06 12:01:17;;;;;;;;;;;23.30;45.50;;;;;;5072476;28;19928;-42
2022/04/06 12:03:46;;;;;;;;;;;23.30;45.40;;;;;;5093789;28;19965;-42
2022/04/06 12:06:15;;;;;;;;;;;23.40;45.40;;;;;;5094287;28;19924;-44
2022/04/06 12:08:43;;;;;;;;;;;23.40;45.40;;;;;;5093470;28;19928;-47
2022/04/06 12:11:10;;;;;;;;;;;23.40;45.40;;;;;;5093475;28;19974;-43
2022/04/06 12:13:38;;;;;;;;;;;23.40;45.30;;;;;;5081420;28;19924;-42
2022/04/06 12:16:06;;;;;;;;;;;23.40;45.20;;;;;;5082121;28;19939;-43
2022/04/06 12:18:34;;;;;;;;;;;23.40;45.20;;;;;;5094305;28;19924;-42
2022/04/06 12:21:01;;;;;;;;;;;23.40;45.20;;;;;;5093198;28;19928;-42
2022/04/06 12:23:29;;;;;;;;;;;23.40;45.20;;;;;;5075529;28;19924;-44
2022/04/06 12:25:58;;;;;;;;;;;23.40;45.20;;;;;;5093320;28;19959;-46
2022/04/06 12:28:29;;;;;;;;;;;23.40;45.20;;;;;;5096649;28;19924;-45
2022/04/06 12:31:03;;;;;;;;;;;23.40;45.20;;;;;;5096066;28;19970;-43
2022/04/06 12:33:45;;;;;;;;;;;23.40;45.10;;;;;;5097519;28;19978;-48
2022/04/06 12:36:19;;;;;;;;;;;23.50;45.10;;;;;;5097184;28;19935;-43
2022/04/06 12:38:57;;;;;;;;;;;23.50;45.10;;;;;;5097048;28;19924;-42
2022/04/06 12:41:25;;;;;;;;;;;23.40;45.00;;;;;;5097294;28;19931;-41
2022/04/06 12:43:53;;;;;;;;;;;23.50;45.00;;;;;;5096327;28;19924;-42
2022/04/06 12:46:39;;;;;;;;;;;23.50;45.00;;;;;;5095760;28;20371;-43
2022/04/06 12:49:19;;;;;;;;;;;23.50;45.00;;;;;;5096846;28;20030;-45
2022/04/06 12:51:46;;;;;;;;;;;23.50;44.90;;;;;;5079157;28;20284;-45
2022/04/06 12:54:13;;;;;;;;;;;23.50;44.90;;;;;;5097172;28;20330;-47
2022/04/06 12:56:59;;;;;;;;;;;23.50;44.90;;;;;;5096675;28;19954;-46
2022/04/06 12:59:34;;;;;;;;;;;23.50;44.80;;;;;;5095974;28;19925;-42
2022/04/06 13:02:02;;;;;;;;;;;23.50;44.80;;;;;;5095856;28;19924;-44
2022/04/06 13:04:29;;;;;;;;;;;23.50;44.80;;;;;;5096537;28;20011;-42
2022/04/06 13:06:56;;;;;;;;;;;23.50;44.80;;;;;;5096451;28;19924;-46
2022/04/06 13:09:23;;;;;;;;;;;23.50;44.80;;;;;;5096611;28;20337;-46
2022/04/06 13:11:51;;;;;;;;;;;23.50;44.70;;;;;;5096708;28;20322;-42
2022/04/06 13:14:23;;;;;;;;;;;23.50;44.70;;;;;;5096007;28;19928;-43
2022/04/06 13:16:51;;;;;;;;;;;23.60;44.80;;;;;;5095336;28;19924;-42
2022/04/06 13:19:18;;;;;;;;;;;23.60;44.80;;;;;;5096265;28;19985;-41
2022/04/06 13:21:45;;;;;;;;;;;23.60;44.70;;;;;;5078698;28;20027;-42
2022/04/06 13:24:12;;;;;;;;;;;23.50;44.70;;;;;;5078271;28;19927;-42
2022/04/06 13:26:39;;;;;;;;;;;23.50;44.70;;;;;;5096107;28;19924;-43
2022/04/06 13:29:08;;;;;;;;;;;23.50;44.80;;;;;;5087276;28;19924;-49
2022/04/06 13:31:39;;;;;;;;;;;23.50;44.90;;;;;;5082558;28;19924;-47
2022/04/06 13:34:06;;;;;;;;;;;23.40;44.80;;;;;;5096340;28;19963;-42
2022/04/06 13:36:33;;;;;;;;;;;23.40;44.90;;;;;;5078596;28;19928;-42
2022/04/06 13:39:00;;;;;;;;;;;23.40;45.00;;;;;;5095512;28;19924;-46
2022/04/06 13:41:30;;;;;;;;;;;23.40;45.00;;;;;;5096088;28;19924;-51
2022/04/06 13:43:56;;;;;;;;;;;23.30;45.00;;;;;;5089885;28;19924;-44
2022/04/06 13:46:23;;;;;;;;;;;23.30;45.00;;;;;;5061617;28;20322;-43
2022/04/06 13:48:52;;;;;;;;;;;23.30;45.00;;;;;;5096515;28;19930;-45
2022/04/06 13:51:19;;;;;;;;;;;23.30;45.10;;;;;;5095851;28;20342;-44
2022/04/06 13:53:46;;;;;;;;;;;23.30;45.10;;;;;;5095912;28;19970;-43
2022/04/06 13:56:13;;;;;;;;;;;23.30;45.20;;;;;;5078218;28;20284;-47
2022/04/06 13:58:40;;;;;;;;;;;23.30;45.30;;;;;;5094639;28;20411;-42
2022/04/06 14:01:07;;;;;;;;;;;23.20;45.20;;;;;;5094983;28;19927;-48
2022/04/06 14:03:34;;;;;;;;;;;23.20;45.20;;;;;;5075453;28;20299;-43
2022/04/06 14:06:01;;;;;;;;;;;23.20;45.20;;;;;;5075472;28;20295;-43
2022/04/06 14:08:30;;;;;;;;;;;23.20;45.20;;;;;;5075110;28;19928;-43
2022/04/06 14:10:58;;;;;;;;;;;23.20;45.30;;;;;;5057634;28;20288;-48
2022/04/06 14:13:24;;;;;;;;;;;23.20;45.30;;;;;;5074999;28;19978;-46
2022/04/06 14:15:52;;;;;;;;;;;23.20;45.30;;;;;;5093008;28;20085;-43
2022/04/06 14:18:20;;;;;;;;;;;23.20;45.30;;;;;;5094021;28;19966;-44
2022/04/06 14:20:48;;;;;;;;;;;23.20;45.30;;;;;;5094917;28;19924;-43
2022/04/06 14:23:15;;;;;;;;;;;23.20;45.30;;;;;;5095347;28;19924;-47
2022/04/06 14:25:47;;;;;;;;;;;23.20;45.30;;;;;;5095055;28;19924;-43
2022/04/06 14:28:14;;;;;;;;;;;23.20;45.30;;;;;;5095033;28;19928;-42
2022/04/06 14:30:48;;;;;;;;;;;23.20;45.40;;;;;;5094056;28;20376;-43
2022/04/06 14:33:16;;;;;;;;;;;23.10;45.30;;;;;;5094066;28;20329;-44
2022/04/06 14:35:44;;;;;;;;;;;23.10;45.30;;;;;;5094779;28;19946;-42